sensor_id;sensor_type;location;lat;lon;timestamp;temperature;humidity
21807;DHT22;11065;50.786;7.840;2023-08-30T00:02:21;16.30;57.80
21807;DHT22;11065;50.786;7.840;2023-08-30T00:04:49;16.30;57.90
21807;DHT22;11065;50.786;7.840;2023-08-30T00:07:17;16.30;57.90
21807;DHT22;11065;50.786;7.840;2023-08-30T00:09:45;16.30;58.00
21807;DHT22;11065;50.786;7.840;2023-08-30T00:12:13;16.30;58.00
21807;DHT22;11065;50.786;7.840;2023-08-30T00:14:41;16.30;58.00
21807;DHT22;11065;50.786;7.840;2023-08-30T00:17:09;16.30;58.00
21807;DHT22;11065;50.786;7.840;2023-08-30T00:19:38;16.30;58.10
21807;DHT22;11065;50.786;7.840;2023-08-30T00:22:06;16.30;58.10
21807;DHT22;11065;50.786;7.840;2023-08-30T00:24:35;16.30;58.00
21807;DHT22;11065;50.786;7.840;2023-08-30T00:27:03;16.30;58.00
21807;DHT22;11065;50.786;7.840;2023-08-30T00:29:31;16.30;58.10
21807;DHT22;11065;50.786;7.840;2023-08-30T00:31:59;16.30;58.00
21807;DHT22;11065;50.786;7.840;2023-08-30T00:34:27;16.30;58.00
21807;DHT22;11065;50.786;7.840;2023-08-30T00:36:57;16.30;58.10
21807;DHT22;11065;50.786;7.840;2023-08-30T00:39:25;16.30;58.20
21807;DHT22;11065;50.786;7.840;2023-08-30T00:41:52;16.30;58.20
21807;DHT22;11065;50.786;7.840;2023-08-30T00:44:22;16.30;58.20
21807;DHT22;11065;50.786;7.840;2023-08-30T00:46:51;16.20;58.20
21807;DHT22;11065;50.786;7.840;2023-08-30T00:49:19;16.20;58.60
21807;DHT22;11065;50.786;7.840;2023-08-30T00:51:47;16.20;58.20
21807;DHT22;11065;50.786;7.840;2023-08-30T00:54:18;16.20;58.20
21807;DHT22;11065;50.786;7.840;2023-08-30T00:56:46;16.20;58.30
21807;DHT22;11065;50.786;7.840;2023-08-30T00:59:14;16.20;58.20
21807;DHT22;11065;50.786;7.840;2023-08-30T01:01:42;16.20;58.20
21807;DHT22;11065;50.786;7.840;2023-08-30T01:04:10;16.20;58.20
21807;DHT22;11065;50.786;7.840;2023-08-30T01:06:38;16.20;58.70
21807;DHT22;11065;50.786;7.840;2023-08-30T01:09:06;16.20;58.20
21807;DHT22;11065;50.786;7.840;2023-08-30T01:11:42;16.20;58.20
21807;DHT22;11065;50.786;7.840;2023-08-30T01:14:14;16.20;58.40
21807;DHT22;11065;50.786;7.840;2023-08-30T01:16:43;16.20;58.30
21807;DHT22;11065;50.786;7.840;2023-08-30T01:19:29;16.20;58.30
21807;DHT22;11065;50.786;7.840;2023-08-30T01:22:08;16.10;58.50
21807;DHT22;11065;50.786;7.840;2023-08-30T01:24:45;16.10;58.40
21807;DHT22;11065;50.786;7.840;2023-08-30T01:27:16;16.10;58.50
21807;DHT22;11065;50.786;7.840;2023-08-30T01:29:46;16.10;58.40
21807;DHT22;11065;50.786;7.840;2023-08-30T01:32:15;16.10;58.50
21807;DHT22;11065;50.786;7.840;2023-08-30T01:34:44;16.20;58.50
21807;DHT22;11065;50.786;7.840;2023-08-30T01:37:15;16.10;58.50
21807;DHT22;11065;50.786;7.840;2023-08-30T01:39:43;16.20;58.60
21807;DHT22;11065;50.786;7.840;2023-08-30T01:42:12;16.10;58.50
21807;DHT22;11065;50.786;7.840;2023-08-30T01:44:43;16.10;58.50
21807;DHT22;11065;50.786;7.840;2023-08-30T01:47:13;16.10;58.50
21807;DHT22;11065;50.786;7.840;2023-08-30T01:49:43;16.10;58.90
21807;DHT22;11065;50.786;7.840;2023-08-30T01:52:12;16.10;58.50
21807;DHT22;11065;50.786;7.840;2023-08-30T01:54:41;16.10;58.40
21807;DHT22;11065;50.786;7.840;2023-08-30T01:57:10;16.10;58.50
21807;DHT22;11065;50.786;7.840;2023-08-30T01:59:38;16.10;58.40
21807;DHT22;11065;50.786;7.840;2023-08-30T02:02:07;16.00;58.40
21807;DHT22;11065;50.786;7.840;2023-08-30T02:04:35;16.00;58.40
21807;DHT22;11065;50.786;7.840;2023-08-30T02:07:04;16.00;58.50
21807;DHT22;11065;50.786;7.840;2023-08-30T02:09:39;16.00;58.60
21807;DHT22;11065;50.786;7.840;2023-08-30T02:12:12;16.00;58.60
21807;DHT22;11065;50.786;7.840;2023-08-30T02:14:43;15.90;58.40
21807;DHT22;11065;50.786;7.840;2023-08-30T02:17:14;15.90;58.40
21807;DHT22;11065;50.786;7.840;2023-08-30T02:19:42;15.90;58.40
21807;DHT22;11065;50.786;7.840;2023-08-30T02:22:11;15.90;58.40
21807;DHT22;11065;50.786;7.840;2023-08-30T02:24:40;15.80;58.40
21807;DHT22;11065;50.786;7.840;2023-08-30T02:27:08;15.80;58.50
21807;DHT22;11065;50.786;7.840;2023-08-30T02:29:36;15.80;58.50
21807;DHT22;11065;50.786;7.840;2023-08-30T02:32:06;15.80;58.60
21807;DHT22;11065;50.786;7.840;2023-08-30T02:34:35;15.80;58.70
21807;DHT22;11065;50.786;7.840;2023-08-30T02:37:04;15.70;58.70
21807;DHT22;11065;50.786;7.840;2023-08-30T02:39:32;15.70;58.70
21807;DHT22;11065;50.786;7.840;2023-08-30T02:42:00;15.70;58.80
21807;DHT22;11065;50.786;7.840;2023-08-30T02:44:28;15.70;58.70
21807;DHT22;11065;50.786;7.840;2023-08-30T02:46:56;15.70;58.70
21807;DHT22;11065;50.786;7.840;2023-08-30T02:49:24;15.70;58.70
21807;DHT22;11065;50.786;7.840;2023-08-30T02:51:53;15.70;58.80
21807;DHT22;11065;50.786;7.840;2023-08-30T02:54:21;15.70;58.80
21807;DHT22;11065;50.786;7.840;2023-08-30T02:56:50;15.70;58.80
21807;DHT22;11065;50.786;7.840;2023-08-30T02:59:18;15.70;58.80
21807;DHT22;11065;50.786;7.840;2023-08-30T03:01:45;15.70;58.80
21807;DHT22;11065;50.786;7.840;2023-08-30T03:04:16;15.70;58.90
21807;DHT22;11065;50.786;7.840;2023-08-30T03:06:44;15.70;58.90
21807;DHT22;11065;50.786;7.840;2023-08-30T03:09:14;15.70;58.90
21807;DHT22;11065;50.786;7.840;2023-08-30T03:11:44;15.70;59.00
21807;DHT22;11065;50.786;7.840;2023-08-30T03:14:12;15.60;58.90
21807;DHT22;11065;50.786;7.840;2023-08-30T03:16:40;15.70;58.90
21807;DHT22;11065;50.786;7.840;2023-08-30T03:19:08;15.70;58.90
21807;DHT22;11065;50.786;7.840;2023-08-30T03:21:36;15.70;58.90
21807;DHT22;11065;50.786;7.840;2023-08-30T03:24:04;15.70;58.90
21807;DHT22;11065;50.786;7.840;2023-08-30T03:26:35;15.60;58.90
21807;DHT22;11065;50.786;7.840;2023-08-30T03:29:03;15.60;59.00
21807;DHT22;11065;50.786;7.840;2023-08-30T03:31:31;15.70;59.00
21807;DHT22;11065;50.786;7.840;2023-08-30T03:33:59;15.70;59.00
21807;DHT22;11065;50.786;7.840;2023-08-30T03:36:28;15.70;59.00
21807;DHT22;11065;50.786;7.840;2023-08-30T03:38:56;15.70;59.00
21807;DHT22;11065;50.786;7.840;2023-08-30T03:41:24;15.60;59.00
21807;DHT22;11065;50.786;7.840;2023-08-30T03:43:53;15.70;59.00
21807;DHT22;11065;50.786;7.840;2023-08-30T03:46:21;15.60;58.90
21807;DHT22;11065;50.786;7.840;2023-08-30T03:48:50;15.60;58.80
21807;DHT22;11065;50.786;7.840;2023-08-30T03:51:18;15.60;58.80
21807;DHT22;11065;50.786;7.840;2023-08-30T03:53:48;15.70;58.90
21807;DHT22;11065;50.786;7.840;2023-08-30T03:56:15;15.60;58.90
21807;DHT22;11065;50.786;7.840;2023-08-30T03:58:45;15.60;58.90
21807;DHT22;11065;50.786;7.840;2023-08-30T04:01:14;15.60;59.00
21807;DHT22;11065;50.786;7.840;2023-08-30T04:03:42;15.60;58.90
21807;DHT22;11065;50.786;7.840;2023-08-30T04:06:10;15.70;58.80
21807;DHT22;11065;50.786;7.840;2023-08-30T04:08:38;15.60;58.80
21807;DHT22;11065;50.786;7.840;2023-08-30T04:11:06;15.60;58.60
21807;DHT22;11065;50.786;7.840;2023-08-30T04:13:34;15.50;58.60
21807;DHT22;11065;50.786;7.840;2023-08-30T04:16:03;15.50;58.60
21807;DHT22;11065;50.786;7.840;2023-08-30T04:18:32;15.50;58.60
21807;DHT22;11065;50.786;7.840;2023-08-30T04:21:00;15.50;58.70
21807;DHT22;11065;50.786;7.840;2023-08-30T04:23:29;15.50;58.70
21807;DHT22;11065;50.786;7.840;2023-08-30T04:25:57;15.50;58.70
21807;DHT22;11065;50.786;7.840;2023-08-30T04:28:25;15.50;58.80
21807;DHT22;11065;50.786;7.840;2023-08-30T04:30:54;15.50;58.70
21807;DHT22;11065;50.786;7.840;2023-08-30T04:33:23;15.50;58.80
21807;DHT22;11065;50.786;7.840;2023-08-30T04:35:53;15.50;58.80
21807;DHT22;11065;50.786;7.840;2023-08-30T04:38:21;15.50;58.80
21807;DHT22;11065;50.786;7.840;2023-08-30T04:40:49;15.50;58.80
21807;DHT22;11065;50.786;7.840;2023-08-30T04:43:17;15.50;58.90
21807;DHT22;11065;50.786;7.840;2023-08-30T04:45:47;15.50;59.00
21807;DHT22;11065;50.786;7.840;2023-08-30T04:48:16;15.50;59.20
21807;DHT22;11065;50.786;7.840;2023-08-30T04:50:44;15.40;59.20
21807;DHT22;11065;50.786;7.840;2023-08-30T04:53:13;15.50;59.30
21807;DHT22;11065;50.786;7.840;2023-08-30T04:55:41;15.50;59.40
21807;DHT22;11065;50.786;7.840;2023-08-30T04:58:10;15.40;59.30
21807;DHT22;11065;50.786;7.840;2023-08-30T05:00:38;15.50;59.50
21807;DHT22;11065;50.786;7.840;2023-08-30T05:03:06;15.50;59.50
21807;DHT22;11065;50.786;7.840;2023-08-30T05:05:35;15.50;59.50
21807;DHT22;11065;50.786;7.840;2023-08-30T05:08:03;15.50;59.60
21807;DHT22;11065;50.786;7.840;2023-08-30T05:10:33;15.50;59.60
21807;DHT22;11065;50.786;7.840;2023-08-30T05:13:02;15.50;59.60
21807;DHT22;11065;50.786;7.840;2023-08-30T05:15:31;15.50;59.50
21807;DHT22;11065;50.786;7.840;2023-08-30T05:18:00;15.50;59.50
21807;DHT22;11065;50.786;7.840;2023-08-30T05:20:28;15.50;59.50
21807;DHT22;11065;50.786;7.840;2023-08-30T05:22:56;15.50;59.50
21807;DHT22;11065;50.786;7.840;2023-08-30T05:25:24;15.50;59.60
21807;DHT22;11065;50.786;7.840;2023-08-30T05:27:54;15.50;59.60
21807;DHT22;11065;50.786;7.840;2023-08-30T05:30:22;15.50;59.70
21807;DHT22;11065;50.786;7.840;2023-08-30T05:32:53;15.70;59.80
21807;DHT22;11065;50.786;7.840;2023-08-30T05:35:39;15.60;59.80
21807;DHT22;11065;50.786;7.840;2023-08-30T05:38:26;15.60;59.70
21807;DHT22;11065;50.786;7.840;2023-08-30T05:41:24;15.60;59.80
21807;DHT22;11065;50.786;7.840;2023-08-30T05:43:55;15.60;59.70
21807;DHT22;11065;50.786;7.840;2023-08-30T05:46:24;15.60;59.70
21807;DHT22;11065;50.786;7.840;2023-08-30T05:48:52;15.60;59.60
21807;DHT22;11065;50.786;7.840;2023-08-30T05:51:21;15.60;59.60
21807;DHT22;11065;50.786;7.840;2023-08-30T05:53:49;15.60;59.60
21807;DHT22;11065;50.786;7.840;2023-08-30T05:56:17;15.60;59.70
21807;DHT22;11065;50.786;7.840;2023-08-30T05:58:45;15.70;59.70
21807;DHT22;11065;50.786;7.840;2023-08-30T06:01:14;15.70;59.60
21807;DHT22;11065;50.786;7.840;2023-08-30T06:03:42;15.70;59.60
21807;DHT22;11065;50.786;7.840;2023-08-30T06:06:11;15.70;59.60
21807;DHT22;11065;50.786;7.840;2023-08-30T06:08:39;15.80;59.60
21807;DHT22;11065;50.786;7.840;2023-08-30T06:11:07;15.80;59.60
21807;DHT22;11065;50.786;7.840;2023-08-30T06:13:35;15.80;59.70
21807;DHT22;11065;50.786;7.840;2023-08-30T06:16:03;15.80;59.70
21807;DHT22;11065;50.786;7.840;2023-08-30T06:18:32;15.80;59.70
21807;DHT22;11065;50.786;7.840;2023-08-30T06:21:00;15.80;59.70
21807;DHT22;11065;50.786;7.840;2023-08-30T06:23:28;15.80;59.80
21807;DHT22;11065;50.786;7.840;2023-08-30T06:25:57;15.90;59.90
21807;DHT22;11065;50.786;7.840;2023-08-30T06:28:25;15.90;59.90
21807;DHT22;11065;50.786;7.840;2023-08-30T06:30:53;16.00;60.10
21807;DHT22;11065;50.786;7.840;2023-08-30T06:33:21;16.00;60.10
21807;DHT22;11065;50.786;7.840;2023-08-30T06:35:50;16.10;60.10
21807;DHT22;11065;50.786;7.840;2023-08-30T06:38:20;16.10;60.10
21807;DHT22;11065;50.786;7.840;2023-08-30T06:40:48;16.20;60.00
21807;DHT22;11065;50.786;7.840;2023-08-30T06:43:16;16.20;60.00
21807;DHT22;11065;50.786;7.840;2023-08-30T06:45:45;16.20;60.00
21807;DHT22;11065;50.786;7.840;2023-08-30T06:48:13;16.30;60.10
21807;DHT22;11065;50.786;7.840;2023-08-30T06:50:41;16.30;60.10
21807;DHT22;11065;50.786;7.840;2023-08-30T06:53:10;16.30;60.10
21807;DHT22;11065;50.786;7.840;2023-08-30T06:55:38;16.40;59.90
21807;DHT22;11065;50.786;7.840;2023-08-30T06:58:06;16.40;59.70
21807;DHT22;11065;50.786;7.840;2023-08-30T07:00:34;16.50;59.80
21807;DHT22;11065;50.786;7.840;2023-08-30T07:03:02;16.50;59.90
21807;DHT22;11065;50.786;7.840;2023-08-30T07:05:30;16.50;59.80
21807;DHT22;11065;50.786;7.840;2023-08-30T07:07:58;16.60;59.80
21807;DHT22;11065;50.786;7.840;2023-08-30T07:10:27;16.60;59.80
21807;DHT22;11065;50.786;7.840;2023-08-30T07:12:55;16.60;59.80
21807;DHT22;11065;50.786;7.840;2023-08-30T07:15:23;16.70;59.90
21807;DHT22;11065;50.786;7.840;2023-08-30T07:17:51;16.70;59.80
21807;DHT22;11065;50.786;7.840;2023-08-30T07:20:22;16.60;60.30
21807;DHT22;11065;50.786;7.840;2023-08-30T07:22:50;16.80;59.80
21807;DHT22;11065;50.786;7.840;2023-08-30T07:25:18;16.80;59.90
21807;DHT22;11065;50.786;7.840;2023-08-30T07:27:47;16.90;59.90
21807;DHT22;11065;50.786;7.840;2023-08-30T07:30:15;16.90;60.00
21807;DHT22;11065;50.786;7.840;2023-08-30T07:32:43;17.00;60.00
21807;DHT22;11065;50.786;7.840;2023-08-30T07:35:11;17.00;60.00
21807;DHT22;11065;50.786;7.840;2023-08-30T07:37:41;17.10;60.10
21807;DHT22;11065;50.786;7.840;2023-08-30T07:40:10;17.10;60.00
21807;DHT22;11065;50.786;7.840;2023-08-30T07:42:38;17.20;60.10
21807;DHT22;11065;50.786;7.840;2023-08-30T07:45:08;17.20;60.00
21807;DHT22;11065;50.786;7.840;2023-08-30T07:47:36;17.20;60.10
21807;DHT22;11065;50.786;7.840;2023-08-30T07:50:06;17.30;60.10
21807;DHT22;11065;50.786;7.840;2023-08-30T07:52:34;17.30;60.20
21807;DHT22;11065;50.786;7.840;2023-08-30T07:55:12;17.40;60.00
21807;DHT22;11065;50.786;7.840;2023-08-30T07:57:40;17.40;60.10
21807;DHT22;11065;50.786;7.840;2023-08-30T08:00:11;17.50;60.20
21807;DHT22;11065;50.786;7.840;2023-08-30T08:02:39;17.50;60.30
21807;DHT22;11065;50.786;7.840;2023-08-30T08:05:08;17.60;60.40
21807;DHT22;11065;50.786;7.840;2023-08-30T08:07:38;17.60;60.40
21807;DHT22;11065;50.786;7.840;2023-08-30T08:10:07;17.70;60.70
21807;DHT22;11065;50.786;7.840;2023-08-30T08:12:36;17.70;60.90
21807;DHT22;11065;50.786;7.840;2023-08-30T08:15:05;17.80;61.00
21807;DHT22;11065;50.786;7.840;2023-08-30T08:17:35;17.90;61.40
21807;DHT22;11065;50.786;7.840;2023-08-30T08:20:05;18.00;61.60
21807;DHT22;11065;50.786;7.840;2023-08-30T08:22:33;18.10;61.50
21807;DHT22;11065;50.786;7.840;2023-08-30T08:25:01;18.20;61.50
21807;DHT22;11065;50.786;7.840;2023-08-30T08:27:29;18.30;61.40
21807;DHT22;11065;50.786;7.840;2023-08-30T08:29:57;18.40;61.00
21807;DHT22;11065;50.786;7.840;2023-08-30T08:32:25;18.50;61.00
21807;DHT22;11065;50.786;7.840;2023-08-30T08:34:55;18.60;60.80
21807;DHT22;11065;50.786;7.840;2023-08-30T08:37:23;18.80;62.20
21807;DHT22;11065;50.786;7.840;2023-08-30T08:39:50;19.20;65.60
21807;DHT22;11065;50.786;7.840;2023-08-30T08:42:19;19.80;69.20
21807;DHT22;11065;50.786;7.840;2023-08-30T08:44:47;20.70;72.00
21807;DHT22;11065;50.786;7.840;2023-08-30T08:47:19;21.70;71.60
21807;DHT22;11065;50.786;7.840;2023-08-30T08:49:48;22.80;69.50
21807;DHT22;11065;50.786;7.840;2023-08-30T08:52:18;23.90;67.90
21807;DHT22;11065;50.786;7.840;2023-08-30T08:54:58;24.90;64.50
21807;DHT22;11065;50.786;7.840;2023-08-30T08:57:28;26.10;63.80
21807;DHT22;11065;50.786;7.840;2023-08-30T08:59:58;27.10;60.40
21807;DHT22;11065;50.786;7.840;2023-08-30T09:02:26;28.00;59.70
21807;DHT22;11065;50.786;7.840;2023-08-30T09:04:57;28.90;57.90
21807;DHT22;11065;50.786;7.840;2023-08-30T09:07:27;29.90;57.50
21807;DHT22;11065;50.786;7.840;2023-08-30T09:09:56;30.80;56.40
21807;DHT22;11065;50.786;7.840;2023-08-30T09:12:24;31.60;56.00
21807;DHT22;11065;50.786;7.840;2023-08-30T09:14:54;32.40;53.80
21807;DHT22;11065;50.786;7.840;2023-08-30T09:17:22;33.10;52.40
21807;DHT22;11065;50.786;7.840;2023-08-30T09:19:50;33.60;51.40
21807;DHT22;11065;50.786;7.840;2023-08-30T09:22:18;34.00;50.00
21807;DHT22;11065;50.786;7.840;2023-08-30T09:24:47;34.40;49.70
21807;DHT22;11065;50.786;7.840;2023-08-30T09:27:15;34.80;48.50
21807;DHT22;11065;50.786;7.840;2023-08-30T09:29:44;35.20;47.30
21807;DHT22;11065;50.786;7.840;2023-08-30T09:32:13;35.40;43.90
21807;DHT22;11065;50.786;7.840;2023-08-30T09:34:45;35.60;43.50
21807;DHT22;11065;50.786;7.840;2023-08-30T09:37:21;35.90;42.40
21807;DHT22;11065;50.786;7.840;2023-08-30T09:39:50;36.10;40.80
21807;DHT22;11065;50.786;7.840;2023-08-30T09:42:18;36.30;41.90
21807;DHT22;11065;50.786;7.840;2023-08-30T09:44:46;36.60;41.80
21807;DHT22;11065;50.786;7.840;2023-08-30T09:47:16;36.80;40.80
21807;DHT22;11065;50.786;7.840;2023-08-30T09:49:45;37.00;40.10
21807;DHT22;11065;50.786;7.840;2023-08-30T09:52:15;37.10;39.80
21807;DHT22;11065;50.786;7.840;2023-08-30T09:54:44;37.20;39.50
21807;DHT22;11065;50.786;7.840;2023-08-30T09:57:15;37.20;37.80
21807;DHT22;11065;50.786;7.840;2023-08-30T09:59:43;37.30;38.20
21807;DHT22;11065;50.786;7.840;2023-08-30T10:02:12;37.30;38.30
21807;DHT22;11065;50.786;7.840;2023-08-30T10:04:41;37.40;38.30
21807;DHT22;11065;50.786;7.840;2023-08-30T10:07:09;37.50;38.20
21807;DHT22;11065;50.786;7.840;2023-08-30T10:09:38;37.70;36.80
21807;DHT22;11065;50.786;7.840;2023-08-30T10:12:23;37.80;36.60
21807;DHT22;11065;50.786;7.840;2023-08-30T10:14:51;37.90;35.30
21807;DHT22;11065;50.786;7.840;2023-08-30T10:17:21;37.80;35.60
21807;DHT22;11065;50.786;7.840;2023-08-30T10:19:50;37.70;34.90
21807;DHT22;11065;50.786;7.840;2023-08-30T10:22:20;37.50;35.30
21807;DHT22;11065;50.786;7.840;2023-08-30T10:24:52;37.30;34.10
21807;DHT22;11065;50.786;7.840;2023-08-30T10:27:41;37.20;34.90
21807;DHT22;11065;50.786;7.840;2023-08-30T10:30:11;37.20;33.70
21807;DHT22;11065;50.786;7.840;2023-08-30T10:32:40;37.10;34.20
21807;DHT22;11065;50.786;7.840;2023-08-30T10:35:11;37.00;32.70
21807;DHT22;11065;50.786;7.840;2023-08-30T10:37:40;36.70;33.20
21807;DHT22;11065;50.786;7.840;2023-08-30T10:40:09;36.70;34.00
21807;DHT22;11065;50.786;7.840;2023-08-30T10:42:39;36.50;33.40
21807;DHT22;11065;50.786;7.840;2023-08-30T10:45:08;36.50;33.30
21807;DHT22;11065;50.786;7.840;2023-08-30T10:47:40;36.40;33.60
21807;DHT22;11065;50.786;7.840;2023-08-30T10:50:10;36.40;33.90
21807;DHT22;11065;50.786;7.840;2023-08-30T10:52:38;36.40;33.40
21807;DHT22;11065;50.786;7.840;2023-08-30T10:55:10;36.40;33.40
21807;DHT22;11065;50.786;7.840;2023-08-30T10:57:43;36.50;33.50
21807;DHT22;11065;50.786;7.840;2023-08-30T11:00:18;36.60;32.90
21807;DHT22;11065;50.786;7.840;2023-08-30T11:02:48;36.60;32.90
21807;DHT22;11065;50.786;7.840;2023-08-30T11:05:18;36.60;32.90
21807;DHT22;11065;50.786;7.840;2023-08-30T11:07:46;36.40;32.40
21807;DHT22;11065;50.786;7.840;2023-08-30T11:10:15;36.30;31.00
21807;DHT22;11065;50.786;7.840;2023-08-30T11:12:45;36.00;30.30
21807;DHT22;11065;50.786;7.840;2023-08-30T11:15:16;35.70;31.40
21807;DHT22;11065;50.786;7.840;2023-08-30T11:17:45;35.50;31.40
21807;DHT22;11065;50.786;7.840;2023-08-30T11:20:14;35.20;32.00
21807;DHT22;11065;50.786;7.840;2023-08-30T11:22:44;35.00;31.90
21807;DHT22;11065;50.786;7.840;2023-08-30T11:25:13;34.90;32.30
21807;DHT22;11065;50.786;7.840;2023-08-30T11:27:42;34.70;32.00
21807;DHT22;11065;50.786;7.840;2023-08-30T11:30:12;34.50;32.10
21807;DHT22;11065;50.786;7.840;2023-08-30T11:32:41;34.10;32.10
21807;DHT22;11065;50.786;7.840;2023-08-30T11:35:10;33.70;31.90
21807;DHT22;11065;50.786;7.840;2023-08-30T11:37:38;33.30;30.80
21807;DHT22;11065;50.786;7.840;2023-08-30T11:40:08;32.70;31.00
21807;DHT22;11065;50.786;7.840;2023-08-30T11:42:39;32.20;31.30
21807;DHT22;11065;50.786;7.840;2023-08-30T11:45:08;31.60;31.60
21807;DHT22;11065;50.786;7.840;2023-08-30T11:47:38;31.00;31.70
21807;DHT22;11065;50.786;7.840;2023-08-30T11:50:09;30.50;31.90
21807;DHT22;11065;50.786;7.840;2023-08-30T11:52:39;30.00;32.20
21807;DHT22;11065;50.786;7.840;2023-08-30T11:55:08;29.50;32.60
21807;DHT22;11065;50.786;7.840;2023-08-30T11:57:36;29.00;33.10
21807;DHT22;11065;50.786;7.840;2023-08-30T12:00:09;28.50;33.10
21807;DHT22;11065;50.786;7.840;2023-08-30T12:02:39;28.10;33.80
21807;DHT22;11065;50.786;7.840;2023-08-30T12:05:11;27.80;34.40
21807;DHT22;11065;50.786;7.840;2023-08-30T12:07:39;27.50;34.90
21807;DHT22;11065;50.786;7.840;2023-08-30T12:10:09;27.20;35.00
21807;DHT22;11065;50.786;7.840;2023-08-30T12:12:37;26.90;35.20
21807;DHT22;11065;50.786;7.840;2023-08-30T12:15:09;26.70;35.30
21807;DHT22;11065;50.786;7.840;2023-08-30T12:17:39;26.50;35.90
21807;DHT22;11065;50.786;7.840;2023-08-30T12:20:14;26.40;36.20
21807;DHT22;11065;50.786;7.840;2023-08-30T12:22:42;26.30;37.00
21807;DHT22;11065;50.786;7.840;2023-08-30T12:25:20;26.20;36.50
21807;DHT22;11065;50.786;7.840;2023-08-30T12:27:50;26.00;37.10
21807;DHT22;11065;50.786;7.840;2023-08-30T12:30:18;26.00;37.70
21807;DHT22;11065;50.786;7.840;2023-08-30T12:32:47;26.00;37.60
21807;DHT22;11065;50.786;7.840;2023-08-30T12:35:15;26.10;37.50
21807;DHT22;11065;50.786;7.840;2023-08-30T12:37:44;26.00;37.70
21807;DHT22;11065;50.786;7.840;2023-08-30T12:40:12;25.90;37.60
21807;DHT22;11065;50.786;7.840;2023-08-30T12:42:40;25.90;37.70
21807;DHT22;11065;50.786;7.840;2023-08-30T12:45:08;25.80;37.90
21807;DHT22;11065;50.786;7.840;2023-08-30T12:47:37;25.70;38.20
21807;DHT22;11065;50.786;7.840;2023-08-30T12:50:07;25.70;38.30
21807;DHT22;11065;50.786;7.840;2023-08-30T12:52:36;25.80;38.30
21807;DHT22;11065;50.786;7.840;2023-08-30T12:55:04;25.90;38.90
21807;DHT22;11065;50.786;7.840;2023-08-30T12:57:33;26.00;38.80
21807;DHT22;11065;50.786;7.840;2023-08-30T13:00:01;26.10;38.60
21807;DHT22;11065;50.786;7.840;2023-08-30T13:02:29;26.30;38.60
21807;DHT22;11065;50.786;7.840;2023-08-30T13:04:57;26.30;38.50
21807;DHT22;11065;50.786;7.840;2023-08-30T13:07:27;26.30;38.30
21807;DHT22;11065;50.786;7.840;2023-08-30T13:09:55;26.40;38.30
21807;DHT22;11065;50.786;7.840;2023-08-30T13:12:23;26.30;38.10
21807;DHT22;11065;50.786;7.840;2023-08-30T13:14:51;26.20;38.10
21807;DHT22;11065;50.786;7.840;2023-08-30T13:17:19;26.10;38.50
21807;DHT22;11065;50.786;7.840;2023-08-30T13:19:47;26.00;38.90
21807;DHT22;11065;50.786;7.840;2023-08-30T13:22:15;26.00;39.10
21807;DHT22;11065;50.786;7.840;2023-08-30T13:24:46;25.90;38.80
21807;DHT22;11065;50.786;7.840;2023-08-30T13:27:14;25.90;39.10
21807;DHT22;11065;50.786;7.840;2023-08-30T13:29:42;25.70;39.10
21807;DHT22;11065;50.786;7.840;2023-08-30T13:32:10;25.60;39.10
21807;DHT22;11065;50.786;7.840;2023-08-30T13:34:38;25.50;39.80
21807;DHT22;11065;50.786;7.840;2023-08-30T13:37:06;25.40;39.50
21807;DHT22;11065;50.786;7.840;2023-08-30T13:39:34;25.30;39.50
21807;DHT22;11065;50.786;7.840;2023-08-30T13:42:04;25.20;40.00
21807;DHT22;11065;50.786;7.840;2023-08-30T13:44:32;25.10;40.00
21807;DHT22;11065;50.786;7.840;2023-08-30T13:47:02;25.10;40.00
21807;DHT22;11065;50.786;7.840;2023-08-30T13:49:31;25.00;40.40
21807;DHT22;11065;50.786;7.840;2023-08-30T13:51:59;24.90;40.30
21807;DHT22;11065;50.786;7.840;2023-08-30T13:54:26;24.70;40.80
21807;DHT22;11065;50.786;7.840;2023-08-30T13:56:56;24.60;40.60
21807;DHT22;11065;50.786;7.840;2023-08-30T13:59:26;24.40;41.50
21807;DHT22;11065;50.786;7.840;2023-08-30T14:01:55;24.30;41.50
21807;DHT22;11065;50.786;7.840;2023-08-30T14:04:24;24.00;41.70
21807;DHT22;11065;50.786;7.840;2023-08-30T14:06:52;23.80;41.80
21807;DHT22;11065;50.786;7.840;2023-08-30T14:09:20;23.70;42.60
21807;DHT22;11065;50.786;7.840;2023-08-30T14:11:49;23.40;42.40
21807;DHT22;11065;50.786;7.840;2023-08-30T14:14:17;23.20;42.80
21807;DHT22;11065;50.786;7.840;2023-08-30T14:16:46;23.10;43.80
21807;DHT22;11065;50.786;7.840;2023-08-30T14:19:15;22.90;43.20
21807;DHT22;11065;50.786;7.840;2023-08-30T14:21:43;22.80;43.70
21807;DHT22;11065;50.786;7.840;2023-08-30T14:24:12;22.70;43.80
21807;DHT22;11065;50.786;7.840;2023-08-30T14:26:40;22.60;44.80
21807;DHT22;11065;50.786;7.840;2023-08-30T14:29:08;22.60;44.40
21807;DHT22;11065;50.786;7.840;2023-08-30T14:31:35;22.50;44.20
21807;DHT22;11065;50.786;7.840;2023-08-30T14:34:05;22.50;44.30
21807;DHT22;11065;50.786;7.840;2023-08-30T14:36:34;22.40;44.50
21807;DHT22;11065;50.786;7.840;2023-08-30T14:39:03;22.40;44.70
21807;DHT22;11065;50.786;7.840;2023-08-30T14:41:31;22.30;44.90
21807;DHT22;11065;50.786;7.840;2023-08-30T14:43:59;22.20;44.60
21807;DHT22;11065;50.786;7.840;2023-08-30T14:46:27;22.10;44.60
21807;DHT22;11065;50.786;7.840;2023-08-30T14:48:55;22.00;45.20
21807;DHT22;11065;50.786;7.840;2023-08-30T14:51:25;21.90;45.80
21807;DHT22;11065;50.786;7.840;2023-08-30T14:53:53;21.80;45.30
21807;DHT22;11065;50.786;7.840;2023-08-30T14:56:21;21.60;45.30
21807;DHT22;11065;50.786;7.840;2023-08-30T14:58:48;21.70;45.60
21807;DHT22;11065;50.786;7.840;2023-08-30T15:01:17;21.60;45.70
21807;DHT22;11065;50.786;7.840;2023-08-30T15:03:45;21.60;46.10
21807;DHT22;11065;50.786;7.840;2023-08-30T15:06:14;21.60;46.40
21807;DHT22;11065;50.786;7.840;2023-08-30T15:08:43;21.60;46.50
21807;DHT22;11065;50.786;7.840;2023-08-30T15:11:11;21.70;46.70
21807;DHT22;11065;50.786;7.840;2023-08-30T15:13:40;21.70;46.60
21807;DHT22;11065;50.786;7.840;2023-08-30T15:16:08;21.70;46.60
21807;DHT22;11065;50.786;7.840;2023-08-30T15:18:36;21.70;46.60
21807;DHT22;11065;50.786;7.840;2023-08-30T15:21:04;21.70;46.80
21807;DHT22;11065;50.786;7.840;2023-08-30T15:23:32;21.70;47.00
21807;DHT22;11065;50.786;7.840;2023-08-30T15:26:03;21.70;47.20
21807;DHT22;11065;50.786;7.840;2023-08-30T15:28:31;21.70;47.70
21807;DHT22;11065;50.786;7.840;2023-08-30T15:31:00;21.70;47.40
21807;DHT22;11065;50.786;7.840;2023-08-30T15:33:28;21.70;47.40
21807;DHT22;11065;50.786;7.840;2023-08-30T15:35:57;21.70;47.60
21807;DHT22;11065;50.786;7.840;2023-08-30T15:38:26;21.60;47.80
21807;DHT22;11065;50.786;7.840;2023-08-30T15:40:54;21.60;47.70
21807;DHT22;11065;50.786;7.840;2023-08-30T15:43:24;21.50;47.70